Edisongracht — PDUJ — position and weather

sailwx.info

Track history (hours):
 
Tides and Currents Weather Stations Pressure Air Temp Water Temp Dewpoint Dewpoint Depression Visibility Wind Speed Wind Dir Waves Ship Positions

Edisongracht

Last reported at 2015-Jan-25 18:33 UTC. Time now 2015-Jan-26 06:23 UTC.
Position N 36°50' E 013°41'.

Length 136 m; beam 19 m; draft 9 m.

Type: Cargo ship. MMSI: 244262000.

Date/timePositionNaut miles runAvg speedWind from/ knotsBaromVisibWave heightAir tempDewpointWater temp
2015-Jan-25 18:33N 36°50' E 013°41'1212.5
2015-Jan-25 17:33N 36°47' E 013°56'1312.5
2015-Jan-25 16:33N 36°44' E 014°11'1313.0
2015-Jan-25 15:33N 36°41' E 014°27'  
2015-Jan-23 07:06N 39°54' E 025°51'2413.4
2015-Jan-23 05:20N 40°05' E 026°19'2712.7
2015-Jan-23 03:09N 40°25' E 026°43'  
2015-Jan-18 16:32N 39°52' E 025°52'13815.2
2015-Jan-18 07:25N 37°33' E 025°54'  
Track history (hours):
 
Tides and Currents Weather Stations Pressure Air Temp Water Temp Dewpoint Dewpoint Depression Visibility Wind Speed Wind Dir Waves Ship Positions

Edisongracht

Last reported at 2015-Jan-25 18:33 UTC. Time now 2015-Jan-26 06:23 UTC.
Position N 36°50' E 013°41'.

Length 136 m; beam 19 m; draft 9 m.

Type: Cargo ship. MMSI: 244262000.

Date/timePositionNaut miles runAvg speedWind from/ knotsBaromVisibWave heightAir tempDewpointWater temp
2015-Jan-25 18:33N 36°50' E 013°41'1212.5
2015-Jan-25 17:33N 36°47' E 013°56'1312.5
2015-Jan-25 16:33N 36°44' E 014°11'1313.0
2015-Jan-25 15:33N 36°41' E 014°27'  
2015-Jan-23 07:06N 39°54' E 025°51'2413.4
2015-Jan-23 05:20N 40°05' E 026°19'2712.7
2015-Jan-23 03:09N 40°25' E 026°43'  
2015-Jan-18 16:32N 39°52' E 025°52'13815.2
2015-Jan-18 07:25N 37°33' E 025°54'  

Dump ship's entire track history